Time;durP1;ratioP1;P1;durP2;ratioP2;P2;SDS_P1;SDS_P2;PMS_P1;PMS_P2;Temp;Humidity;BMP_temperature;BMP_pressure;BME280_temperature;BME280_humidity;BME280_pressure;Samples;Min_cycle;Max_cycle;Signal;HPM_P1;HPM_P2
2023/02/10 00:01:34;;;;;;;68.82;32.28;;;-3.00;99.90;;;;;;5058698;28;20045;-63
2023/02/10 00:04:02;;;;;;;69.72;33.00;;;-3.10;99.90;;;;;;5068703;28;20040;-63
2023/02/10 00:06:30;;;;;;;74.40;35.50;;;-3.10;99.90;;;;;;5059166;28;20492;-63
2023/02/10 00:09:00;;;;;;;72.25;34.08;;;-3.10;99.90;;;;;;5066531;28;20554;-63
2023/02/10 00:14:17;;;;;;;69.32;34.45;;;-3.10;99.90;;;;;;5050800;28;20076;-64
2023/02/10 00:16:45;;;;;;;71.13;35.20;;;-3.10;99.90;;;;;;5051607;28;20052;-64
2023/02/10 00:19:12;;;;;;;76.05;37.05;;;-3.10;99.90;;;;;;5062997;28;20043;-63
2023/02/10 00:21:39;;;;;;;79.88;35.45;;;-3.10;99.90;;;;;;5079270;28;20060;-64
2023/02/10 00:24:07;;;;;;;75.63;35.35;;;-3.10;99.90;;;;;;5070356;28;20041;-63
2023/02/10 00:26:34;;;;;;;74.95;36.03;;;-3.20;99.90;;;;;;5058808;28;20076;-63
2023/02/10 00:29:02;;;;;;;72.50;36.92;;;-3.20;99.90;;;;;;5073499;28;20115;-62
2023/02/10 00:31:29;;;;;;;72.50;35.03;;;-3.20;99.90;;;;;;5075457;28;20033;-64
2023/02/10 00:33:57;;;;;;;70.22;34.63;;;-3.20;99.90;;;;;;5087370;28;20071;-64
2023/02/10 00:36:24;;;;;;;73.07;35.20;;;-3.20;99.90;;;;;;5072009;28;20067;-63
2023/02/10 00:38:52;;;;;;;83.72;39.45;;;-3.20;99.90;;;;;;5070699;28;20041;-63
2023/02/10 00:41:21;;;;;;;79.68;38.25;;;-3.20;99.90;;;;;;5070017;28;20048;-64
2023/02/10 00:43:49;;;;;;;77.57;37.05;;;-3.20;99.90;;;;;;5074004;28;20537;-64
2023/02/10 00:46:19;;;;;;;78.00;38.03;;;-3.20;99.90;;;;;;5069904;28;20033;-63
2023/02/10 00:48:46;;;;;;;79.65;37.17;;;-3.20;99.90;;;;;;5053999;28;20091;-63
2023/02/10 00:51:15;;;;;;;80.50;37.63;;;-3.20;99.90;;;;;;5067996;28;20296;-65
2023/02/10 00:53:42;;;;;;;79.38;38.72;;;-3.20;99.90;;;;;;5089386;28;20041;-64
2023/02/10 00:56:10;;;;;;;76.32;35.80;;;-3.20;99.90;;;;;;5071145;28;20125;-63
2023/02/10 00:58:38;;;;;;;74.22;37.45;;;-3.20;99.90;;;;;;5073924;28;20340;-62
2023/02/10 01:01:06;;;;;;;80.68;37.20;;;-3.20;99.90;;;;;;5059818;28;20041;-63
2023/02/10 01:03:34;;;;;;;80.45;38.63;;;-3.30;99.90;;;;;;5073408;28;20051;-63
2023/02/10 01:06:01;;;;;;;76.82;37.35;;;-3.30;99.90;;;;;;5050356;28;20072;-63
2023/02/10 01:08:30;;;;;;;72.65;35.95;;;-3.30;99.90;;;;;;5050722;28;20118;-63
2023/02/10 01:10:59;;;;;;;76.28;36.38;;;-3.40;99.90;;;;;;5051920;28;20037;-64
2023/02/10 01:13:27;;;;;;;81.93;38.15;;;-3.40;99.90;;;;;;5047610;28;20045;-63
2023/02/10 01:15:54;;;;;;;72.32;36.25;;;-3.50;99.90;;;;;;5053359;28;20067;-63
2023/02/10 01:18:21;;;;;;;72.63;35.75;;;-3.50;99.90;;;;;;5051780;28;20048;-63
2023/02/10 01:20:49;;;;;;;75.32;35.85;;;-3.60;99.90;;;;;;5047414;28;20085;-62
2023/02/10 01:23:16;;;;;;;74.30;35.65;;;-3.60;99.90;;;;;;5031852;28;20037;-64
2023/02/10 01:25:43;;;;;;;70.65;35.67;;;-3.60;99.90;;;;;;5032523;28;20046;-63
2023/02/10 01:28:11;;;;;;;73.13;35.72;;;-3.60;99.90;;;;;;5032233;28;20111;-63
2023/02/10 01:30:38;;;;;;;72.28;35.65;;;-3.70;99.90;;;;;;5032938;28;20042;-63
2023/02/10 01:33:06;;;;;;;79.80;36.83;;;-3.70;99.90;;;;;;5039220;28;20124;-63
2023/02/10 01:35:36;;;;;;;68.80;34.78;;;-3.70;99.90;;;;;;5065359;28;20056;-63
2023/02/10 01:38:03;;;;;;;73.82;35.42;;;-3.80;99.90;;;;;;5032015;28;20041;-63
2023/02/10 01:40:31;;;;;;;72.65;35.83;;;-3.80;99.90;;;;;;5046039;28;20056;-64
2023/02/10 01:42:58;;;;;;;74.43;35.53;;;-3.80;99.90;;;;;;5050475;28;20053;-63
2023/02/10 01:45:32;;;;;;;74.20;37.38;;;-3.80;99.90;;;;;;5051556;28;20048;-64
2023/02/10 01:48:01;;;;;;;75.15;36.60;;;-3.90;99.90;;;;;;5068542;28;20045;-63
2023/02/10 01:50:40;;;;;;;70.97;34.95;;;-3.90;99.90;;;;;;5052676;28;20036;-62
2023/02/10 01:53:07;;;;;;;73.72;34.60;;;-3.90;99.90;;;;;;5034981;28;20041;-64
2023/02/10 01:55:36;;;;;;;75.97;35.83;;;-3.90;99.90;;;;;;5032765;28;20140;-63
2023/02/10 01:58:07;;;;;;;73.38;36.00;;;-3.90;99.90;;;;;;5030724;28;20507;-63
2023/02/10 02:00:35;;;;;;;70.22;35.25;;;-3.90;99.90;;;;;;5031133;28;20045;-63
2023/02/10 02:03:04;;;;;;;75.35;35.05;;;-3.90;99.90;;;;;;5032731;28;20077;-63
2023/02/10 02:05:40;;;;;;;80.18;36.08;;;-3.90;99.90;;;;;;5032005;28;20080;-63
2023/02/10 02:08:13;;;;;;;73.03;34.47;;;-3.90;99.90;;;;;;5032376;28;20431;-63
2023/02/10 02:11:18;;;;;;;78.70;37.67;;;-3.90;99.90;;;;;;5034754;28;20052;-63
2023/02/10 02:14:07;;;;;;;76.22;33.78;;;-3.90;99.90;;;;;;5051447;28;20041;-62
2023/02/10 02:16:43;;;;;;;71.88;33.47;;;-3.80;99.90;;;;;;5050037;28;20047;-63
2023/02/10 02:19:23;;;;;;;71.95;34.35;;;-3.90;99.90;;;;;;5058134;28;20124;-62
2023/02/10 02:22:32;;;;;;;75.90;36.10;;;-3.90;99.90;;;;;;5031572;28;20404;-62
2023/02/10 02:25:37;;;;;;;73.43;34.90;;;-3.90;99.90;;;;;;5030768;28;20468;-63
2023/02/10 02:28:10;;;;;;;75.70;36.03;;;-3.90;99.90;;;;;;5041872;28;20033;-62
2023/02/10 02:30:45;;;;;;;76.93;34.85;;;-3.90;99.90;;;;;;5030562;28;20571;-62
2023/02/10 02:33:23;;;;;;;72.88;33.72;;;-3.90;99.90;;;;;;5030424;28;20570;-63
2023/02/10 02:35:59;;;;;;;71.78;34.90;;;-3.90;99.90;;;;;;5043284;28;20520;-63
2023/02/10 02:38:27;;;;;;;69.55;33.10;;;-3.90;99.90;;;;;;5049878;28;20041;-63
2023/02/10 02:40:55;;;;;;;82.50;36.60;;;-3.90;99.90;;;;;;5050282;28;20468;-63
2023/02/10 02:43:23;;;;;;;76.70;35.92;;;-3.90;99.90;;;;;;5051034;28;20047;-62
2023/02/10 02:45:57;;;;;;;74.70;34.80;;;-4.00;99.90;;;;;;5050297;28;20064;-63
2023/02/10 02:48:24;;;;;;;76.97;35.95;;;-4.00;99.90;;;;;;5061754;28;20333;-62
2023/02/10 02:51:24;;;;;;;73.05;34.88;;;-4.10;99.90;;;;;;5048665;28;20051;-65
2023/02/10 02:54:17;;;;;;;75.25;34.50;;;-4.10;99.90;;;;;;5031311;28;20037;-63
2023/02/10 02:56:48;;;;;;;80.38;34.85;;;-4.10;99.90;;;;;;5019545;28;20511;-63
2023/02/10 02:59:21;;;;;;;73.80;34.95;;;-4.20;99.90;;;;;;5032579;28;20053;-64
2023/02/10 03:01:55;;;;;;;77.28;36.53;;;-4.20;99.90;;;;;;5050719;28;20140;-63
2023/02/10 03:04:26;;;;;;;73.25;34.50;;;-4.20;99.90;;;;;;5049066;28;20534;-64
2023/02/10 03:06:54;;;;;;;78.10;35.97;;;-4.20;99.90;;;;;;5051737;28;20110;-65
2023/02/10 03:09:22;;;;;;;74.68;36.30;;;-4.30;99.90;;;;;;5048344;28;20515;-64
2023/02/10 03:11:49;;;;;;;79.45;36.35;;;-4.30;99.90;;;;;;5037012;28;20559;-64
2023/02/10 03:14:16;;;;;;;71.10;34.50;;;-4.30;99.90;;;;;;5050995;28;20496;-64
2023/02/10 03:16:44;;;;;;;79.97;35.92;;;-4.30;99.90;;;;;;5038426;28;20452;-63
2023/02/10 03:19:11;;;;;;;75.53;35.50;;;-4.30;99.90;;;;;;5030312;28;20393;-64
2023/02/10 03:21:39;;;;;;;76.65;35.85;;;-4.30;99.90;;;;;;5029003;28;20163;-63
2023/02/10 03:24:08;;;;;;;77.43;36.83;;;-4.40;99.90;;;;;;5034197;28;20431;-64
2023/02/10 03:26:36;;;;;;;77.38;36.33;;;-4.40;99.90;;;;;;5030023;28;20084;-64
2023/02/10 03:29:05;;;;;;;71.93;36.17;;;-4.40;99.90;;;;;;5029789;28;20052;-64
2023/02/10 03:31:32;;;;;;;74.40;35.13;;;-4.40;99.90;;;;;;5029314;28;20068;-64
2023/02/10 03:34:00;;;;;;;78.25;35.45;;;-4.40;99.90;;;;;;5040336;28;20060;-63
2023/02/10 03:36:28;;;;;;;75.13;35.50;;;-4.40;99.90;;;;;;5045120;28;20085;-63
2023/02/10 03:38:55;;;;;;;73.05;34.33;;;-4.40;99.90;;;;;;5029394;28;20048;-64
2023/02/10 03:41:22;;;;;;;72.43;33.15;;;-4.50;99.90;;;;;;5048303;28;20048;-64
2023/02/10 03:43:49;;;;;;;72.10;33.97;;;-4.50;99.90;;;;;;5042658;28;20060;-64
2023/02/10 03:46:16;;;;;;;75.43;33.20;;;-4.50;99.90;;;;;;5030300;28;20052;-63
2023/02/10 03:48:44;;;;;;;75.47;37.08;;;-4.60;99.90;;;;;;5030140;28;20048;-65
2023/02/10 03:51:12;;;;;;;76.32;35.17;;;-4.50;99.90;;;;;;5047675;28;20037;-64
2023/02/10 03:53:39;;;;;;;75.95;35.08;;;-4.50;99.90;;;;;;5050802;28;20415;-63
2023/02/10 03:56:07;;;;;;;74.10;36.08;;;-4.60;99.90;;;;;;5045963;28;20124;-65
2023/02/10 03:58:34;;;;;;;77.20;36.13;;;-4.50;99.90;;;;;;5030426;28;20415;-64
2023/02/10 04:01:09;;;;;;;79.03;35.90;;;-4.60;99.90;;;;;;5029229;28;20037;-64
2023/02/10 04:03:37;;;;;;;75.70;35.22;;;-4.60;99.90;;;;;;5030343;28;20077;-64
2023/02/10 04:06:04;;;;;;;73.88;34.85;;;-4.60;99.90;;;;;;5043881;28;20039;-64
2023/02/10 04:08:31;;;;;;;78.97;33.78;;;-4.60;99.90;;;;;;5054826;28;20052;-64
2023/02/10 04:10:59;;;;;;;77.18;36.47;;;-4.60;99.90;;;;;;5052247;28;20073;-64
2023/02/10 04:13:26;;;;;;;78.32;34.97;;;-4.70;99.90;;;;;;5039451;28;20069;-64
2023/02/10 04:16:08;;;;;;;73.88;34.70;;;-4.70;99.90;;;;;;5034413;28;20396;-64
2023/02/10 04:18:38;;;;;;;75.57;35.10;;;-4.60;99.90;;;;;;5039824;28;20507;-64
2023/02/10 04:21:07;;;;;;;71.80;34.65;;;-4.70;99.90;;;;;;5032518;28;20132;-64
2023/02/10 04:23:35;;;;;;;76.47;34.75;;;-4.70;99.90;;;;;;5052756;28;20555;-64
2023/02/10 04:26:03;;;;;;;80.10;36.53;;;-4.70;99.90;;;;;;5052854;28;20504;-64
2023/02/10 04:28:30;;;;;;;74.43;33.90;;;-4.70;99.90;;;;;;5051101;28;20045;-63
2023/02/10 04:30:59;;;;;;;80.82;36.58;;;-4.80;99.90;;;;;;5052654;28;20503;-64
2023/02/10 04:33:27;;;;;;;77.63;36.88;;;-4.70;99.90;;;;;;5050560;28;20392;-64
2023/02/10 04:35:55;;;;;;;80.40;35.72;;;-4.70;99.90;;;;;;5040810;28;20034;-63
2023/02/10 04:38:23;;;;;;;77.20;37.03;;;-4.80;99.90;;;;;;5034050;28;20052;-64
2023/02/10 04:40:50;;;;;;;84.55;37.42;;;-4.80;99.90;;;;;;5032257;28;20145;-64
2023/02/10 04:43:18;;;;;;;79.15;38.22;;;-4.80;99.90;;;;;;5031230;28;20538;-63
2023/02/10 04:45:45;;;;;;;80.68;38.22;;;-4.80;99.90;;;;;;5033405;28;20056;-64
2023/02/10 04:48:16;;;;;;;76.00;35.17;;;-4.90;99.90;;;;;;5033147;28;20412;-64
2023/02/10 04:50:43;;;;;;;74.57;37.13;;;-4.80;99.90;;;;;;5046909;28;20071;-63
2023/02/10 04:53:11;;;;;;;79.80;35.92;;;-4.80;99.90;;;;;;5053296;28;20037;-64
2023/02/10 04:55:38;;;;;;;79.68;35.65;;;-4.90;99.90;;;;;;5038163;28;20515;-64
2023/02/10 04:58:06;;;;;;;80.53;38.13;;;-4.80;99.90;;;;;;5033670;28;20041;-64
2023/02/10 05:00:34;;;;;;;72.40;35.75;;;-4.80;99.90;;;;;;5032640;28;20496;-64
2023/02/10 05:03:01;;;;;;;82.00;37.20;;;-4.80;99.90;;;;;;5039183;28;20041;-64
2023/02/10 05:05:28;;;;;;;72.57;36.90;;;-4.80;99.90;;;;;;5052378;28;20045;-64
2023/02/10 05:07:56;;;;;;;82.78;37.10;;;-4.80;99.90;;;;;;5032833;28;20570;-64
2023/02/10 05:10:23;;;;;;;76.38;36.20;;;-4.80;99.90;;;;;;5034916;28;20476;-64
2023/02/10 05:12:51;;;;;;;77.32;38.53;;;-4.90;99.90;;;;;;5053165;28;20407;-63
2023/02/10 05:15:18;;;;;;;83.55;38.40;;;-4.90;99.90;;;;;;5048552;28;20037;-63
2023/02/10 05:17:45;;;;;;;75.78;36.90;;;-4.90;99.90;;;;;;5033677;28;20037;-63
2023/02/10 05:20:15;;;;;;;79.40;37.08;;;-4.90;99.90;;;;;;5047537;28;20038;-63
2023/02/10 05:22:43;;;;;;;75.03;34.78;;;-4.90;99.90;;;;;;5032030;28;20042;-64
2023/02/10 05:25:10;;;;;;;72.22;35.05;;;-4.90;99.90;;;;;;5032583;28;20052;-64
2023/02/10 05:27:37;;;;;;;86.68;38.67;;;-5.00;99.90;;;;;;5032867;28;20559;-64
2023/02/10 05:30:06;;;;;;;84.03;38.08;;;-5.00;99.90;;;;;;5038686;28;20041;-64
2023/02/10 05:32:33;;;;;;;77.30;36.85;;;-5.00;99.90;;;;;;5051839;28;20041;-64
2023/02/10 05:35:00;;;;;;;78.35;35.17;;;-5.00;99.90;;;;;;5044718;28;20049;-64
2023/02/10 05:37:28;;;;;;;80.43;35.67;;;-5.00;99.90;;;;;;5033463;28;20506;-63
2023/02/10 05:39:55;;;;;;;73.40;34.92;;;-5.00;99.90;;;;;;5032197;28;20423;-64
2023/02/10 05:42:22;;;;;;;79.80;34.58;;;-5.10;99.90;;;;;;5033108;28;20484;-64
2023/02/10 05:44:50;;;;;;;74.18;36.00;;;-5.10;99.90;;;;;;5046873;28;20049;-64
2023/02/10 05:47:17;;;;;;;79.75;36.50;;;-5.10;99.90;;;;;;5067333;28;20450;-64
2023/02/10 05:49:44;;;;;;;76.90;37.25;;;-5.20;99.90;;;;;;5041143;28;20380;-63
2023/02/10 05:52:12;;;;;;;81.97;36.83;;;-5.10;99.90;;;;;;5050351;28;20426;-64
2023/02/10 05:54:40;;;;;;;85.28;38.03;;;-5.20;99.90;;;;;;5036432;28;20120;-63
2023/02/10 05:57:07;;;;;;;80.95;37.75;;;-5.20;99.90;;;;;;5049843;28;20080;-65
2023/02/10 05:59:34;;;;;;;86.53;38.05;;;-5.20;99.90;;;;;;5037029;28;20056;-64
2023/02/10 06:02:02;;;;;;;74.28;34.88;;;-5.20;99.90;;;;;;5043067;28;20049;-64
2023/02/10 06:04:29;;;;;;;83.93;37.17;;;-5.20;99.90;;;;;;5055572;28;20122;-64
2023/02/10 06:06:56;;;;;;;75.43;35.33;;;-5.20;99.90;;;;;;5087420;28;20048;-63
2023/02/10 06:09:24;;;;;;;81.78;36.88;;;-5.20;99.90;;;;;;5068348;28;20041;-64
2023/02/10 06:11:51;;;;;;;80.25;37.28;;;-5.20;99.90;;;;;;5077766;28;20131;-64
2023/02/10 06:14:19;;;;;;;78.55;36.83;;;-5.20;99.90;;;;;;5070922;28;20455;-64
2023/02/10 06:16:46;;;;;;;76.05;35.88;;;-5.20;99.90;;;;;;5071836;28;20046;-64
2023/02/10 06:19:14;;;;;;;86.05;37.03;;;-5.20;99.90;;;;;;5087131;28;20044;-64
2023/02/10 06:21:41;;;;;;;80.47;36.20;;;-5.20;99.90;;;;;;5071921;28;20044;-64
2023/02/10 06:24:09;;;;;;;85.13;37.75;;;-5.30;99.90;;;;;;5087028;28;20050;-64
2023/02/10 06:26:37;;;;;;;79.65;36.95;;;-5.30;99.90;;;;;;5071145;28;20135;-64
2023/02/10 06:29:04;;;;;;;81.13;38.60;;;-5.30;99.90;;;;;;5070226;28;20410;-64
2023/02/10 06:31:31;;;;;;;77.65;36.45;;;-5.30;99.90;;;;;;5087270;28;20124;-64
2023/02/10 06:33:59;;;;;;;77.88;36.97;;;-5.30;99.90;;;;;;5071716;28;20043;-63
2023/02/10 06:36:26;;;;;;;77.43;35.42;;;-5.30;99.90;;;;;;5055470;28;20190;-64
2023/02/10 06:38:53;;;;;;;78.22;36.28;;;-5.20;99.90;;;;;;5071703;28;20044;-63
2023/02/10 06:41:21;;;;;;;87.03;36.88;;;-5.20;99.90;;;;;;5071484;28;20521;-64
2023/02/10 06:43:48;;;;;;;83.05;37.90;;;-5.20;99.90;;;;;;5071354;28;20059;-64
2023/02/10 06:46:16;;;;;;;82.05;37.35;;;-5.10;99.90;;;;;;5071105;28;20040;-64
2023/02/10 06:48:43;;;;;;;81.03;37.42;;;-5.10;99.90;;;;;;5071067;28;20524;-68
2023/02/10 06:51:10;;;;;;;83.47;37.65;;;-5.10;99.90;;;;;;5053585;28;20475;-65
2023/02/10 06:53:38;;;;;;;81.50;38.28;;;-5.00;99.90;;;;;;5060534;28;20494;-65
2023/02/10 06:56:06;;;;;;;89.18;37.90;;;-4.90;99.90;;;;;;5065277;28;20421;-65
2023/02/10 06:58:33;;;;;;;81.32;37.45;;;-4.90;99.90;;;;;;5055465;28;20088;-65
2023/02/10 07:01:00;;;;;;;83.40;39.45;;;-4.80;99.90;;;;;;5045877;28;20037;-65
2023/02/10 07:03:28;;;;;;;79.97;38.78;;;-4.80;99.90;;;;;;5044580;28;20064;-66
2023/02/10 07:05:55;;;;;;;88.30;38.30;;;-4.70;99.90;;;;;;5051148;28;20595;-69
2023/02/10 07:08:22;;;;;;;81.82;36.78;;;-4.70;99.90;;;;;;5066312;28;20587;-68
2023/02/10 07:10:50;;;;;;;82.65;38.60;;;-4.60;99.90;;;;;;5077660;28;20048;-68
2023/02/10 07:13:17;;;;;;;80.57;37.85;;;-4.60;99.90;;;;;;5042055;28;20037;-68
2023/02/10 07:15:46;;;;;;;84.78;37.47;;;-4.50;99.90;;;;;;5037137;28;20048;-67
2023/02/10 07:18:14;;;;;;;79.13;36.97;;;-4.50;99.90;;;;;;5055270;28;20038;-68
2023/02/10 07:20:41;;;;;;;76.82;35.72;;;-4.50;99.90;;;;;;5042172;28;20044;-69
2023/02/10 07:23:08;;;;;;;78.43;37.75;;;-4.40;99.90;;;;;;5060525;28;20048;-66
2023/02/10 07:25:36;;;;;;;77.32;36.95;;;-4.40;99.90;;;;;;5051372;28;20123;-67
2023/02/10 07:28:03;;;;;;;80.22;37.13;;;-4.30;99.90;;;;;;5031770;28;20063;-68
2023/02/10 07:30:31;;;;;;;76.18;37.08;;;-4.20;99.90;;;;;;5064900;28;20083;-67
2023/02/10 07:32:59;;;;;;;77.25;36.30;;;-4.20;99.90;;;;;;5078163;28;20391;-69
2023/02/10 07:35:26;;;;;;;77.70;35.83;;;-4.10;99.90;;;;;;5047275;28;20477;-68
2023/02/10 07:37:54;;;;;;;75.60;35.78;;;-4.00;99.90;;;;;;5064191;28;20512;-68
2023/02/10 07:40:22;;;;;;;86.53;38.63;;;-4.00;99.90;;;;;;5064269;28;20521;-68
2023/02/10 07:42:49;;;;;;;82.55;37.95;;;-4.00;99.90;;;;;;5043075;28;20545;-70
2023/02/10 07:45:32;;;;;;;82.45;36.75;;;-3.90;99.90;;;;;;5053047;28;20050;-69
2023/02/10 07:47:59;;;;;;;74.10;33.65;;;-3.80;99.90;;;;;;5069661;28;20045;-67
2023/02/10 07:50:26;;;;;;;76.03;36.78;;;-3.70;99.90;;;;;;5046859;28;20107;-67
2023/02/10 07:52:57;;;;;;;75.28;36.20;;;-3.60;99.90;;;;;;5041196;28;20065;-70
2023/02/10 07:55:25;;;;;;;81.82;37.10;;;-3.50;99.90;;;;;;5032465;28;20148;-70
2023/02/10 07:57:52;;;;;;;71.28;35.45;;;-3.40;99.90;;;;;;5039768;28;20508;-66
2023/02/10 08:00:20;;;;;;;88.07;34.83;;;-3.30;99.90;;;;;;5048463;28;20618;-68
2023/02/10 08:02:47;;;;;;;83.82;39.17;;;-3.20;99.90;;;;;;5051727;28;20040;-69
2023/02/10 08:05:14;;;;;;;73.05;36.45;;;-3.10;99.90;;;;;;5049058;28;20041;-68
2023/02/10 08:07:42;;;;;;;76.78;36.25;;;-3.00;99.90;;;;;;5053749;28;20425;-69
2023/02/10 08:10:09;;;;;;;81.85;35.30;;;-2.90;99.90;;;;;;5065672;28;20391;-69
2023/02/10 08:12:36;;;;;;;76.60;36.08;;;-2.90;99.90;;;;;;5032501;28;20053;-69
2023/02/10 08:15:05;;;;;;;79.78;38.38;;;-2.80;99.90;;;;;;5045555;28;20046;-68
2023/02/10 08:17:32;;;;;;;76.78;36.38;;;-2.80;99.90;;;;;;5042847;28;20033;-69
2023/02/10 08:20:00;;;;;;;75.40;36.85;;;-2.70;99.90;;;;;;5042520;28;20496;-69
2023/02/10 08:22:27;;;;;;;76.35;36.28;;;-2.60;99.90;;;;;;5041395;28;20049;-66
2023/02/10 08:24:54;;;;;;;77.95;37.08;;;-2.50;99.90;;;;;;5036762;28;20052;-70
2023/02/10 08:27:21;;;;;;;70.88;35.92;;;-2.50;99.90;;;;;;5041590;28;20579;-70
2023/02/10 08:29:49;;;;;;;73.07;35.92;;;-2.40;99.90;;;;;;5048863;28;20037;-69
2023/02/10 08:32:18;;;;;;;88.25;37.80;;;-2.30;99.90;;;;;;5045062;28;20037;-68
2023/02/10 08:34:47;;;;;;;73.60;36.50;;;-2.20;99.90;;;;;;5049049;28;20357;-67
2023/02/10 08:37:17;;;;;;;72.70;37.50;;;-2.10;99.90;;;;;;5048778;28;20095;-68
2023/02/10 08:39:44;;;;;;;78.47;36.83;;;-2.00;99.90;;;;;;5050585;28;20080;-66
2023/02/10 08:42:12;;;;;;;73.97;36.45;;;-1.90;99.90;;;;;;5050725;28;20053;-69
2023/02/10 08:44:39;;;;;;;79.25;35.83;;;-1.80;99.90;;;;;;5049895;28;20053;-69
2023/02/10 08:47:10;;;;;;;71.43;36.10;;;-1.70;99.90;;;;;;5036600;28;20054;-69
2023/02/10 08:49:38;;;;;;;72.43;35.13;;;-1.60;99.90;;;;;;5046817;28;20053;-69
2023/02/10 08:52:05;;;;;;;73.40;36.20;;;-1.50;99.90;;;;;;5043920;28;20625;-69
2023/02/10 08:54:32;;;;;;;78.07;36.35;;;-1.40;99.90;;;;;;5033423;28;20445;-69
2023/02/10 08:57:00;;;;;;;68.05;35.40;;;-1.30;99.90;;;;;;5042856;28;20042;-69
2023/02/10 08:59:27;;;;;;;84.70;37.03;;;-1.20;99.90;;;;;;5046640;28;20509;-69
2023/02/10 09:01:54;;;;;;;75.13;36.22;;;-1.20;99.90;;;;;;5046927;28;20495;-67
2023/02/10 09:04:22;;;;;;;66.70;34.22;;;-1.10;99.90;;;;;;5039736;28;20080;-65
2023/02/10 09:06:49;;;;;;;75.32;35.03;;;-1.00;99.90;;;;;;5041252;28;20083;-66
2023/02/10 09:09:22;;;;;;;72.97;33.75;;;-0.80;99.90;;;;;;5038020;28;20282;-67
2023/02/10 09:11:49;;;;;;;69.28;34.20;;;-0.70;99.90;;;;;;5022802;28;20057;-66
2023/02/10 09:14:17;;;;;;;75.38;36.70;;;-0.50;99.90;;;;;;5043242;28;20095;-67
2023/02/10 09:16:44;;;;;;;65.72;34.10;;;-0.40;99.90;;;;;;5040140;28;20049;-67
2023/02/10 09:19:12;;;;;;;70.03;37.22;;;-0.30;99.90;;;;;;5041582;28;20686;-68
2023/02/10 09:21:39;;;;;;;74.07;36.60;;;-0.20;99.90;;;;;;5041367;28;20360;-67
2023/02/10 09:24:14;;;;;;;68.70;34.25;;;-0.10;99.90;;;;;;5039943;28;20076;-67
2023/02/10 09:26:42;;;;;;;72.88;37.20;;;0.00;99.90;;;;;;5048694;28;20045;-67
2023/02/10 09:29:11;;;;;;;70.13;36.13;;;0.20;99.90;;;;;;5057929;28;20140;-68
2023/02/10 09:31:38;;;;;;;73.65;37.72;;;0.40;99.90;;;;;;5042761;28;20120;-68
2023/02/10 09:34:06;;;;;;;69.63;36.40;;;0.50;99.90;;;;;;5041609;28;20041;-67
2023/02/10 09:36:33;;;;;;;65.45;34.42;;;0.60;99.90;;;;;;5043081;28;20049;-68
2023/02/10 09:39:00;;;;;;;72.72;35.90;;;0.80;99.90;;;;;;5049499;28;20148;-68
2023/02/10 09:41:33;;;;;;;67.85;34.78;;;1.00;99.90;;;;;;5046638;28;20407;-68
2023/02/10 09:44:15;;;;;;;61.55;33.70;;;1.10;99.90;;;;;;5047241;28;20048;-68
2023/02/10 09:47:03;;;;;;;71.18;35.38;;;1.20;99.90;;;;;;5042674;28;20048;-68
2023/02/10 09:50:07;;;;;;;73.55;35.40;;;1.40;99.90;;;;;;5032021;28;20091;-68
2023/02/10 09:52:56;;;;;;;61.55;33.83;;;1.50;99.90;;;;;;5042417;28;20067;-67
2023/02/10 09:55:41;;;;;;;67.50;36.05;;;1.50;99.90;;;;;;5047160;28;20629;-67
2023/02/10 09:58:31;;;;;;;66.75;34.83;;;1.70;99.90;;;;;;5047456;28;20407;-67
2023/02/10 10:01:17;;;;;;;61.30;32.60;;;2.00;99.90;;;;;;5035468;28;20126;-66
2023/02/10 10:03:59;;;;;;;63.83;32.28;;;2.10;99.90;;;;;;5046947;28;20077;-67
2023/02/10 10:06:29;;;;;;;51.38;27.30;;;2.00;99.90;;;;;;5043737;28;20049;-67
2023/02/10 10:09:03;;;;;;;59.30;33.63;;;2.00;99.90;;;;;;5035411;28;20492;-66
2023/02/10 10:11:33;;;;;;;58.35;32.85;;;2.20;99.90;;;;;;5046506;28;20539;-67
2023/02/10 10:14:01;;;;;;;62.90;33.65;;;2.40;99.90;;;;;;5063356;28;20048;-67
2023/02/10 10:17:05;;;;;;;59.65;33.08;;;2.50;99.90;;;;;;5050039;28;20140;-67
2023/02/10 10:19:54;;;;;;;60.78;33.83;;;2.50;99.90;;;;;;5043916;28;20075;-67
2023/02/10 10:22:52;;;;;;;61.95;33.55;;;2.60;99.90;;;;;;5067097;28;20068;-67
2023/02/10 10:25:46;;;;;;;57.38;32.53;;;2.70;99.90;;;;;;5063729;28;20076;-67
2023/02/10 10:28:44;;;;;;;66.75;33.38;;;3.10;99.90;;;;;;5055460;28;20125;-65
2023/02/10 10:31:26;;;;;;;63.53;34.30;;;2.70;99.90;;;;;;5036479;28;20099;-64
2023/02/10 10:34:01;;;;;;;56.53;31.88;;;2.70;99.90;;;;;;5052268;28;20068;-67
2023/02/10 10:36:41;;;;;;;61.75;33.85;;;3.10;99.90;;;;;;5043083;28;20045;-66
2023/02/10 10:39:23;;;;;;;54.42;31.45;;;3.40;99.90;;;;;;5028725;28;20626;-67
2023/02/10 10:41:51;;;;;;;61.50;33.67;;;3.60;99.90;;;;;;5027369;28;20419;-68
2023/02/10 10:44:19;;;;;;;65.57;32.88;;;3.90;99.90;;;;;;5042521;28;20040;-66
2023/02/10 10:47:20;;;;;;;57.45;31.92;;;4.00;99.90;;;;;;5047590;28;20428;-65
2023/02/10 10:49:47;;;;;;;58.35;30.75;;;3.70;99.90;;;;;;5034141;28;20041;-68
2023/02/10 10:52:28;;;;;;;59.85;32.45;;;3.70;99.90;;;;;;5045193;28;20060;-66
2023/02/10 10:54:56;;;;;;;55.20;31.90;;;3.60;99.90;;;;;;5028276;28;20080;-67
2023/02/10 10:57:26;;;;;;;53.58;29.85;;;4.20;99.90;;;;;;5025862;28;20471;-66
2023/02/10 11:00:01;;;;;;;55.67;30.83;;;4.50;99.90;;;;;;5041379;28;20052;-69
2023/02/10 11:02:29;;;;;;;63.35;34.20;;;4.70;99.90;;;;;;5050228;28;20049;-67
2023/02/10 11:05:04;;;;;;;54.42;30.45;;;4.60;99.90;;;;;;5026821;28;20141;-67
2023/02/10 11:07:33;;;;;;;60.58;33.53;;;4.90;99.90;;;;;;5036380;28;20138;-67
2023/02/10 11:10:02;;;;;;;55.13;31.08;;;4.60;99.90;;;;;;5043045;28;20041;-67
2023/02/10 11:12:36;;;;;;;57.38;31.98;;;4.90;99.90;;;;;;5038742;28;20037;-67
2023/02/10 11:15:25;;;;;;;50.08;29.95;;;4.80;99.90;;;;;;5047862;28;20041;-66
2023/02/10 11:17:54;;;;;;;55.70;31.27;;;5.40;99.90;;;;;;5055511;28;20407;-67
2023/02/10 11:20:33;;;;;;;60.40;32.22;;;5.40;99.90;;;;;;5039870;28;20064;-67
2023/02/10 11:23:04;;;;;;;56.40;32.22;;;5.50;99.90;;;;;;5046038;28;20491;-67
2023/02/10 11:25:36;;;;;;;52.15;30.35;;;5.00;99.90;;;;;;5030290;28;20052;-68
2023/02/10 11:28:06;;;;;;;56.55;32.70;;;5.30;99.90;;;;;;5035735;28;20491;-68
2023/02/10 11:30:34;;;;;;;51.78;31.20;;;5.70;99.90;;;;;;5043091;28;20042;-68
2023/02/10 11:33:03;;;;;;;53.78;31.25;;;5.70;99.90;;;;;;5050718;28;20107;-68
2023/02/10 11:35:33;;;;;;;55.28;32.67;;;5.80;99.90;;;;;;5043497;28;20103;-69
2023/02/10 11:38:05;;;;;;;59.97;33.20;;;6.00;99.90;;;;;;5046318;28;20490;-69
2023/02/10 11:41:01;;;;;;;53.03;31.08;;;5.70;99.90;;;;;;5038957;28;20049;-69
2023/02/10 11:43:46;;;;;;;56.80;31.73;;;6.20;99.90;;;;;;5035483;28;20045;-68
2023/02/10 11:46:24;;;;;;;57.88;32.47;;;6.30;99.90;;;;;;5019683;28;20533;-68
2023/02/10 11:48:57;;;;;;;56.75;31.20;;;6.40;99.90;;;;;;5039784;28;20045;-69
2023/02/10 11:51:24;;;;;;;50.97;30.88;;;6.60;99.90;;;;;;5043785;28;20049;-67
2023/02/10 11:53:52;;;;;;;54.25;34.05;;;6.90;99.90;;;;;;5040672;28;20122;-67
2023/02/10 11:59:50;;;;;;;57.47;33.67;;;7.10;99.90;;;;;;5036307;28;20064;-67
2023/02/10 12:02:46;;;;;;;53.92;32.95;;;7.60;99.90;;;;;;5046910;28;20399;-68
2023/02/10 12:05:22;;;;;;;52.03;32.80;;;7.70;99.90;;;;;;5046130;28;20503;-68
2023/02/10 12:08:09;;;;;;;56.35;33.33;;;7.50;99.90;;;;;;5045638;28;20045;-68
2023/02/10 12:10:46;;;;;;;50.33;30.60;;;7.50;99.90;;;;;;5038537;28;20064;-68
2023/02/10 12:13:42;;;;;;;55.60;32.13;;;7.30;99.90;;;;;;5043609;28;20045;-70
2023/02/10 12:16:22;;;;;;;56.15;33.67;;;7.10;99.90;;;;;;5046096;28;20099;-68
2023/02/10 12:19:02;;;;;;;59.10;33.85;;;7.00;99.90;;;;;;5028972;28;20360;-67
2023/02/10 12:21:47;;;;;;;57.33;34.10;;;6.80;99.90;;;;;;5042079;28;20049;-67
2023/02/10 12:24:38;;;;;;;56.72;33.58;;;6.80;99.90;;;;;;5026631;28;20467;-68
2023/02/10 12:27:21;;;;;;;50.92;32.42;;;6.80;99.90;;;;;;5038252;28;20049;-68
2023/02/10 12:30:04;;;;;;;60.67;34.83;;;6.80;99.90;;;;;;5049253;28;20089;-68
2023/02/10 12:32:34;;;;;;;54.10;33.50;;;6.60;99.90;;;;;;5038801;28;20640;-67
2023/02/10 12:35:23;;;;;;;61.10;34.72;;;6.70;99.90;;;;;;5029818;28;20567;-67
2023/02/10 12:38:20;;;;;;;63.67;34.17;;;7.10;99.90;;;;;;5034025;28;20055;-68
2023/02/10 12:40:56;;;;;;;60.47;34.10;;;7.40;99.90;;;;;;5049079;28;20041;-67
2023/02/10 12:43:42;;;;;;;53.40;32.53;;;7.60;99.90;;;;;;5044448;28;20460;-67
2023/02/10 12:46:40;;;;;;;58.55;34.60;;;8.10;99.90;;;;;;5031154;28;20072;-67
2023/02/10 12:49:08;;;;;;;53.95;34.58;;;8.50;99.90;;;;;;5041325;28;21382;-67
2023/02/10 12:51:41;;;;;;;52.75;33.10;;;8.80;99.90;;;;;;5029994;28;20049;-67
2023/02/10 12:54:26;;;;;;;61.60;35.88;;;8.70;99.90;;;;;;5029316;28;20052;-67
2023/02/10 12:57:36;;;;;;;61.35;35.58;;;8.30;99.90;;;;;;5030573;28;20467;-67
2023/02/10 13:00:06;;;;;;;58.40;36.95;;;8.00;99.90;;;;;;5029435;28;20124;-68